sensor_id;sensor_type;location;lat;lon;timestamp;P1;durP1;ratioP1;P2;durP2;ratioP2
47289;SDS011;33197;52.524;13.444;2022-08-21T00:01:37;5.22;;;4.18;;
47289;SDS011;33197;52.524;13.444;2022-08-21T00:04:05;8.98;;;4.85;;
47289;SDS011;33197;52.524;13.444;2022-08-21T00:06:33;7.38;;;4.32;;
47289;SDS011;33197;52.524;13.444;2022-08-21T00:09:02;7.18;;;4.60;;
47289;SDS011;33197;52.524;13.444;2022-08-21T00:11:33;7.28;;;4.68;;
47289;SDS011;33197;52.524;13.444;2022-08-21T00:14:02;5.90;;;5.07;;
47289;SDS011;33197;52.524;13.444;2022-08-21T00:16:30;6.72;;;5.03;;
47289;SDS011;33197;52.524;13.444;2022-08-21T00:18:57;7.95;;;4.88;;
47289;SDS011;33197;52.524;13.444;2022-08-21T00:21:24;5.40;;;4.85;;
47289;SDS011;33197;52.524;13.444;2022-08-21T00:23:52;7.88;;;5.20;;
47289;SDS011;33197;52.524;13.444;2022-08-21T00:26:19;8.88;;;5.28;;
47289;SDS011;33197;52.524;13.444;2022-08-21T00:28:46;8.45;;;4.68;;
47289;SDS011;33197;52.524;13.444;2022-08-21T00:31:15;7.65;;;5.15;;
47289;SDS011;33197;52.524;13.444;2022-08-21T00:33:43;6.00;;;5.22;;
47289;SDS011;33197;52.524;13.444;2022-08-21T00:36:11;8.27;;;4.70;;
47289;SDS011;33197;52.524;13.444;2022-08-21T00:38:39;8.02;;;5.80;;
47289;SDS011;33197;52.524;13.444;2022-08-21T00:41:08;5.53;;;4.35;;
47289;SDS011;33197;52.524;13.444;2022-08-21T00:43:55;6.88;;;4.97;;
47289;SDS011;33197;52.524;13.444;2022-08-21T00:46:22;8.77;;;4.80;;
47289;SDS011;33197;52.524;13.444;2022-08-21T00:48:54;8.20;;;5.47;;
47289;SDS011;33197;52.524;13.444;2022-08-21T00:51:25;8.60;;;5.25;;
47289;SDS011;33197;52.524;13.444;2022-08-21T00:53:57;6.15;;;4.38;;
47289;SDS011;33197;52.524;13.444;2022-08-21T00:56:28;6.32;;;4.63;;
47289;SDS011;33197;52.524;13.444;2022-08-21T00:58:56;7.60;;;4.78;;
47289;SDS011;33197;52.524;13.444;2022-08-21T01:01:24;6.90;;;4.90;;
47289;SDS011;33197;52.524;13.444;2022-08-21T01:03:52;7.90;;;5.50;;
47289;SDS011;33197;52.524;13.444;2022-08-21T01:06:19;6.13;;;4.75;;
47289;SDS011;33197;52.524;13.444;2022-08-21T01:08:47;7.60;;;5.03;;
47289;SDS011;33197;52.524;13.444;2022-08-21T01:11:14;9.02;;;5.43;;
47289;SDS011;33197;52.524;13.444;2022-08-21T01:13:42;8.00;;;5.03;;
47289;SDS011;33197;52.524;13.444;2022-08-21T01:16:13;6.75;;;4.50;;
47289;SDS011;33197;52.524;13.444;2022-08-21T01:18:43;7.05;;;5.18;;
47289;SDS011;33197;52.524;13.444;2022-08-21T01:23:43;7.22;;;5.05;;
47289;SDS011;33197;52.524;13.444;2022-08-21T01:26:12;6.68;;;5.50;;
47289;SDS011;33197;52.524;13.444;2022-08-21T01:28:42;6.22;;;4.32;;
47289;SDS011;33197;52.524;13.444;2022-08-21T01:31:13;6.13;;;4.63;;
47289;SDS011;33197;52.524;13.444;2022-08-21T01:33:42;5.65;;;4.40;;
47289;SDS011;33197;52.524;13.444;2022-08-21T01:36:10;8.32;;;5.05;;
47289;SDS011;33197;52.524;13.444;2022-08-21T01:38:37;9.85;;;5.53;;
47289;SDS011;33197;52.524;13.444;2022-08-21T01:41:04;9.63;;;4.88;;
47289;SDS011;33197;52.524;13.444;2022-08-21T01:43:31;8.15;;;4.30;;
47289;SDS011;33197;52.524;13.444;2022-08-21T01:46:05;8.82;;;4.57;;
47289;SDS011;33197;52.524;13.444;2022-08-21T01:48:32;8.20;;;4.30;;
47289;SDS011;33197;52.524;13.444;2022-08-21T01:51:00;7.13;;;4.78;;
47289;SDS011;33197;52.524;13.444;2022-08-21T01:53:27;6.50;;;4.10;;
47289;SDS011;33197;52.524;13.444;2022-08-21T01:56:00;6.25;;;4.40;;
47289;SDS011;33197;52.524;13.444;2022-08-21T01:58:27;10.95;;;4.63;;
47289;SDS011;33197;52.524;13.444;2022-08-21T02:00:54;6.93;;;4.47;;
47289;SDS011;33197;52.524;13.444;2022-08-21T02:03:21;7.35;;;4.40;;
47289;SDS011;33197;52.524;13.444;2022-08-21T02:06:01;7.07;;;4.22;;
47289;SDS011;33197;52.524;13.444;2022-08-21T02:08:32;6.72;;;4.18;;
47289;SDS011;33197;52.524;13.444;2022-08-21T02:10:59;6.53;;;3.50;;
47289;SDS011;33197;52.524;13.444;2022-08-21T02:13:26;9.30;;;4.20;;
47289;SDS011;33197;52.524;13.444;2022-08-21T02:15:54;6.40;;;3.97;;
47289;SDS011;33197;52.524;13.444;2022-08-21T02:18:21;4.28;;;3.67;;
47289;SDS011;33197;52.524;13.444;2022-08-21T02:20:48;6.38;;;4.03;;
47289;SDS011;33197;52.524;13.444;2022-08-21T02:23:22;8.02;;;4.30;;
47289;SDS011;33197;52.524;13.444;2022-08-21T02:26:03;9.38;;;4.07;;
47289;SDS011;33197;52.524;13.444;2022-08-21T02:28:31;17.30;;;4.10;;
47289;SDS011;33197;52.524;13.444;2022-08-21T02:30:59;6.78;;;3.63;;
47289;SDS011;33197;52.524;13.444;2022-08-21T02:33:26;9.55;;;3.65;;
47289;SDS011;33197;52.524;13.444;2022-08-21T02:35:54;8.55;;;3.80;;
47289;SDS011;33197;52.524;13.444;2022-08-21T02:38:25;7.88;;;3.70;;
47289;SDS011;33197;52.524;13.444;2022-08-21T02:40:54;6.53;;;3.97;;
47289;SDS011;33197;52.524;13.444;2022-08-21T02:43:23;10.80;;;3.63;;
47289;SDS011;33197;52.524;13.444;2022-08-21T02:45:51;6.55;;;3.10;;
47289;SDS011;33197;52.524;13.444;2022-08-21T02:48:20;7.03;;;3.30;;
47289;SDS011;33197;52.524;13.444;2022-08-21T02:50:59;9.40;;;3.55;;
47289;SDS011;33197;52.524;13.444;2022-08-21T02:53:28;6.57;;;3.20;;
47289;SDS011;33197;52.524;13.444;2022-08-21T02:55:57;6.35;;;2.95;;
47289;SDS011;33197;52.524;13.444;2022-08-21T02:58:27;5.60;;;3.10;;
47289;SDS011;33197;52.524;13.444;2022-08-21T03:00:58;9.43;;;3.42;;
47289;SDS011;33197;52.524;13.444;2022-08-21T03:03:26;10.43;;;3.20;;
47289;SDS011;33197;52.524;13.444;2022-08-21T03:05:54;6.60;;;2.97;;
47289;SDS011;33197;52.524;13.444;2022-08-21T03:08:22;4.60;;;2.75;;
47289;SDS011;33197;52.524;13.444;2022-08-21T03:10:53;5.07;;;2.80;;
47289;SDS011;33197;52.524;13.444;2022-08-21T03:13:20;7.35;;;3.65;;
47289;SDS011;33197;52.524;13.444;2022-08-21T03:15:48;7.05;;;2.83;;
47289;SDS011;33197;52.524;13.444;2022-08-21T03:18:16;5.28;;;3.05;;
47289;SDS011;33197;52.524;13.444;2022-08-21T03:20:44;7.00;;;2.95;;
47289;SDS011;33197;52.524;13.444;2022-08-21T03:23:12;6.40;;;2.53;;
47289;SDS011;33197;52.524;13.444;2022-08-21T03:25:45;7.75;;;3.17;;
47289;SDS011;33197;52.524;13.444;2022-08-21T03:28:14;6.72;;;2.58;;
47289;SDS011;33197;52.524;13.444;2022-08-21T03:30:42;5.18;;;2.65;;
47289;SDS011;33197;52.524;13.444;2022-08-21T03:33:10;5.07;;;2.35;;
47289;SDS011;33197;52.524;13.444;2022-08-21T03:35:42;5.68;;;2.50;;
47289;SDS011;33197;52.524;13.444;2022-08-21T03:38:10;6.22;;;3.03;;
47289;SDS011;33197;52.524;13.444;2022-08-21T03:40:40;7.65;;;2.35;;
47289;SDS011;33197;52.524;13.444;2022-08-21T03:43:07;6.30;;;2.70;;
47289;SDS011;33197;52.524;13.444;2022-08-21T03:45:36;7.00;;;2.78;;
47289;SDS011;33197;52.524;13.444;2022-08-21T03:48:04;6.68;;;2.33;;
47289;SDS011;33197;52.524;13.444;2022-08-21T03:50:34;5.50;;;2.15;;
47289;SDS011;33197;52.524;13.444;2022-08-21T03:53:10;10.45;;;3.03;;
47289;SDS011;33197;52.524;13.444;2022-08-21T03:55:44;9.25;;;3.22;;
47289;SDS011;33197;52.524;13.444;2022-08-21T03:58:13;4.82;;;2.50;;
47289;SDS011;33197;52.524;13.444;2022-08-21T04:00:44;6.75;;;2.45;;
47289;SDS011;33197;52.524;13.444;2022-08-21T04:03:11;5.47;;;2.58;;
47289;SDS011;33197;52.524;13.444;2022-08-21T04:05:39;8.50;;;2.50;;
47289;SDS011;33197;52.524;13.444;2022-08-21T04:08:06;6.53;;;2.40;;
47289;SDS011;33197;52.524;13.444;2022-08-21T04:10:34;6.03;;;2.38;;
47289;SDS011;33197;52.524;13.444;2022-08-21T04:13:03;8.73;;;2.90;;
47289;SDS011;33197;52.524;13.444;2022-08-21T04:15:31;9.40;;;2.80;;
47289;SDS011;33197;52.524;13.444;2022-08-21T04:17:58;10.10;;;2.58;;
47289;SDS011;33197;52.524;13.444;2022-08-21T04:20:26;5.57;;;2.85;;
47289;SDS011;33197;52.524;13.444;2022-08-21T04:22:53;8.65;;;2.50;;
47289;SDS011;33197;52.524;13.444;2022-08-21T04:25:22;7.82;;;2.60;;
47289;SDS011;33197;52.524;13.444;2022-08-21T04:27:52;11.05;;;3.42;;
47289;SDS011;33197;52.524;13.444;2022-08-21T04:30:19;6.45;;;2.30;;
47289;SDS011;33197;52.524;13.444;2022-08-21T04:32:55;10.48;;;2.50;;
47289;SDS011;33197;52.524;13.444;2022-08-21T04:35:24;5.20;;;2.28;;
47289;SDS011;33197;52.524;13.444;2022-08-21T04:37:53;4.90;;;2.50;;
47289;SDS011;33197;52.524;13.444;2022-08-21T04:40:21;6.68;;;2.78;;
47289;SDS011;33197;52.524;13.444;2022-08-21T04:42:52;5.32;;;2.30;;
47289;SDS011;33197;52.524;13.444;2022-08-21T04:45:28;8.60;;;2.83;;
47289;SDS011;33197;52.524;13.444;2022-08-21T04:47:57;11.10;;;2.47;;
47289;SDS011;33197;52.524;13.444;2022-08-21T04:50:31;8.15;;;2.65;;
47289;SDS011;33197;52.524;13.444;2022-08-21T04:53:05;8.05;;;2.28;;
47289;SDS011;33197;52.524;13.444;2022-08-21T04:55:35;7.32;;;2.03;;
47289;SDS011;33197;52.524;13.444;2022-08-21T04:58:07;8.52;;;2.30;;
47289;SDS011;33197;52.524;13.444;2022-08-21T05:00:36;8.23;;;1.98;;
47289;SDS011;33197;52.524;13.444;2022-08-21T05:03:03;4.35;;;1.60;;
47289;SDS011;33197;52.524;13.444;2022-08-21T05:05:32;8.10;;;2.20;;
47289;SDS011;33197;52.524;13.444;2022-08-21T05:07:59;7.55;;;2.03;;
47289;SDS011;33197;52.524;13.444;2022-08-21T05:10:28;7.45;;;2.15;;
47289;SDS011;33197;52.524;13.444;2022-08-21T05:12:55;5.30;;;2.47;;
47289;SDS011;33197;52.524;13.444;2022-08-21T05:15:22;5.18;;;2.03;;
47289;SDS011;33197;52.524;13.444;2022-08-21T05:17:49;5.60;;;2.33;;
47289;SDS011;33197;52.524;13.444;2022-08-21T05:20:22;9.30;;;1.88;;
47289;SDS011;33197;52.524;13.444;2022-08-21T05:22:50;10.20;;;2.28;;
47289;SDS011;33197;52.524;13.444;2022-08-21T05:25:17;7.78;;;2.20;;
47289;SDS011;33197;52.524;13.444;2022-08-21T05:27:48;6.72;;;1.98;;
47289;SDS011;33197;52.524;13.444;2022-08-21T05:30:18;9.75;;;2.53;;
47289;SDS011;33197;52.524;13.444;2022-08-21T05:32:46;7.45;;;2.38;;
47289;SDS011;33197;52.524;13.444;2022-08-21T05:35:14;16.17;;;2.65;;
47289;SDS011;33197;52.524;13.444;2022-08-21T05:37:41;6.68;;;2.05;;
47289;SDS011;33197;52.524;13.444;2022-08-21T05:40:08;10.07;;;1.95;;
47289;SDS011;33197;52.524;13.444;2022-08-21T05:42:47;6.28;;;2.08;;
47289;SDS011;33197;52.524;13.444;2022-08-21T05:45:25;3.45;;;1.60;;
47289;SDS011;33197;52.524;13.444;2022-08-21T05:48:16;3.92;;;1.45;;
47289;SDS011;33197;52.524;13.444;2022-08-21T05:50:45;10.68;;;3.05;;
47289;SDS011;33197;52.524;13.444;2022-08-21T05:53:14;7.13;;;1.88;;
47289;SDS011;33197;52.524;13.444;2022-08-21T05:55:42;8.05;;;2.10;;
47289;SDS011;33197;52.524;13.444;2022-08-21T05:58:16;11.48;;;2.28;;
47289;SDS011;33197;52.524;13.444;2022-08-21T06:00:45;4.70;;;1.45;;
47289;SDS011;33197;52.524;13.444;2022-08-21T06:03:18;11.18;;;2.63;;
47289;SDS011;33197;52.524;13.444;2022-08-21T06:05:50;6.38;;;1.90;;
47289;SDS011;33197;52.524;13.444;2022-08-21T06:08:18;6.20;;;1.73;;
47289;SDS011;33197;52.524;13.444;2022-08-21T06:10:46;9.63;;;1.80;;
47289;SDS011;33197;52.524;13.444;2022-08-21T06:13:14;8.15;;;1.67;;
47289;SDS011;33197;52.524;13.444;2022-08-21T06:15:42;6.05;;;1.92;;
47289;SDS011;33197;52.524;13.444;2022-08-21T06:18:10;6.35;;;1.48;;
47289;SDS011;33197;52.524;13.444;2022-08-21T06:20:37;10.70;;;2.20;;
47289;SDS011;33197;52.524;13.444;2022-08-21T06:23:04;7.68;;;1.90;;
47289;SDS011;33197;52.524;13.444;2022-08-21T06:25:32;8.77;;;1.60;;
47289;SDS011;33197;52.524;13.444;2022-08-21T06:28:07;4.57;;;1.63;;
47289;SDS011;33197;52.524;13.444;2022-08-21T06:30:35;11.13;;;2.40;;
47289;SDS011;33197;52.524;13.444;2022-08-21T06:33:03;7.95;;;1.70;;
47289;SDS011;33197;52.524;13.444;2022-08-21T06:35:30;7.65;;;2.30;;
47289;SDS011;33197;52.524;13.444;2022-08-21T06:37:57;5.47;;;1.70;;
47289;SDS011;33197;52.524;13.444;2022-08-21T06:40:28;9.55;;;2.95;;
47289;SDS011;33197;52.524;13.444;2022-08-21T06:42:57;4.25;;;1.80;;
47289;SDS011;33197;52.524;13.444;2022-08-21T06:45:27;5.97;;;2.13;;
47289;SDS011;33197;52.524;13.444;2022-08-21T06:47:58;7.50;;;2.00;;
47289;SDS011;33197;52.524;13.444;2022-08-21T06:50:25;6.35;;;1.88;;
47289;SDS011;33197;52.524;13.444;2022-08-21T06:53:26;7.07;;;1.80;;
47289;SDS011;33197;52.524;13.444;2022-08-21T06:55:46;5.55;;;1.95;;
47289;SDS011;33197;52.524;13.444;2022-08-21T06:58:15;8.55;;;2.00;;
47289;SDS011;33197;52.524;13.444;2022-08-21T07:00:43;6.65;;;1.65;;
47289;SDS011;33197;52.524;13.444;2022-08-21T07:03:25;4.68;;;1.58;;
47289;SDS011;33197;52.524;13.444;2022-08-21T07:05:56;4.43;;;1.57;;
47289;SDS011;33197;52.524;13.444;2022-08-21T07:08:25;6.85;;;2.30;;
47289;SDS011;33197;52.524;13.444;2022-08-21T07:10:53;6.78;;;1.58;;
47289;SDS011;33197;52.524;13.444;2022-08-21T07:13:22;12.48;;;2.05;;
47289;SDS011;33197;52.524;13.444;2022-08-21T07:15:49;5.10;;;1.85;;
47289;SDS011;33197;52.524;13.444;2022-08-21T07:18:17;8.43;;;1.92;;
47289;SDS011;33197;52.524;13.444;2022-08-21T07:20:44;7.13;;;2.83;;
47289;SDS011;33197;52.524;13.444;2022-08-21T07:23:13;8.70;;;2.08;;
47289;SDS011;33197;52.524;13.444;2022-08-21T07:26:01;9.40;;;2.30;;
47289;SDS011;33197;52.524;13.444;2022-08-21T07:28:28;6.45;;;1.67;;
47289;SDS011;33197;52.524;13.444;2022-08-21T07:30:56;10.95;;;2.22;;
47289;SDS011;33197;52.524;13.444;2022-08-21T07:33:25;9.48;;;1.88;;
47289;SDS011;33197;52.524;13.444;2022-08-21T07:35:53;6.88;;;2.50;;
47289;SDS011;33197;52.524;13.444;2022-08-21T07:38:22;11.00;;;2.17;;
47289;SDS011;33197;52.524;13.444;2022-08-21T07:40:50;4.15;;;1.50;;
47289;SDS011;33197;52.524;13.444;2022-08-21T07:43:18;7.65;;;2.20;;
47289;SDS011;33197;52.524;13.444;2022-08-21T07:45:45;12.55;;;2.72;;
47289;SDS011;33197;52.524;13.444;2022-08-21T07:48:12;6.35;;;1.40;;
47289;SDS011;33197;52.524;13.444;2022-08-21T07:50:40;5.07;;;1.48;;
47289;SDS011;33197;52.524;13.444;2022-08-21T07:53:08;4.88;;;1.33;;
47289;SDS011;33197;52.524;13.444;2022-08-21T07:55:35;6.05;;;1.23;;
47289;SDS011;33197;52.524;13.444;2022-08-21T07:58:02;9.15;;;2.50;;
47289;SDS011;33197;52.524;13.444;2022-08-21T08:00:29;6.03;;;1.30;;
47289;SDS011;33197;52.524;13.444;2022-08-21T08:02:57;5.00;;;1.65;;
47289;SDS011;33197;52.524;13.444;2022-08-21T08:05:26;3.22;;;1.15;;
47289;SDS011;33197;52.524;13.444;2022-08-21T08:07:55;5.30;;;1.33;;
47289;SDS011;33197;52.524;13.444;2022-08-21T08:10:22;5.60;;;1.50;;
47289;SDS011;33197;52.524;13.444;2022-08-21T08:12:49;8.50;;;1.27;;
47289;SDS011;33197;52.524;13.444;2022-08-21T08:15:19;7.28;;;1.48;;
47289;SDS011;33197;52.524;13.444;2022-08-21T08:17:47;6.38;;;1.25;;
47289;SDS011;33197;52.524;13.444;2022-08-21T08:20:15;7.75;;;1.35;;
47289;SDS011;33197;52.524;13.444;2022-08-21T08:22:44;2.50;;;1.20;;
47289;SDS011;33197;52.524;13.444;2022-08-21T08:25:26;4.53;;;1.45;;
47289;SDS011;33197;52.524;13.444;2022-08-21T08:28:03;4.93;;;1.50;;
47289;SDS011;33197;52.524;13.444;2022-08-21T08:30:46;5.43;;;1.30;;
47289;SDS011;33197;52.524;13.444;2022-08-21T08:33:13;6.15;;;1.30;;
47289;SDS011;33197;52.524;13.444;2022-08-21T08:35:42;3.88;;;1.25;;
47289;SDS011;33197;52.524;13.444;2022-08-21T08:38:09;6.95;;;1.73;;
47289;SDS011;33197;52.524;13.444;2022-08-21T08:40:52;6.68;;;1.50;;
47289;SDS011;33197;52.524;13.444;2022-08-21T08:43:20;5.20;;;1.20;;
47289;SDS011;33197;52.524;13.444;2022-08-21T08:45:49;5.65;;;1.70;;
47289;SDS011;33197;52.524;13.444;2022-08-21T08:48:31;7.53;;;1.67;;
47289;SDS011;33197;52.524;13.444;2022-08-21T08:51:26;6.38;;;2.05;;
47289;SDS011;33197;52.524;13.444;2022-08-21T08:54:03;6.43;;;2.22;;
47289;SDS011;33197;52.524;13.444;2022-08-21T08:56:35;8.98;;;1.77;;
47289;SDS011;33197;52.524;13.444;2022-08-21T08:59:11;4.38;;;1.40;;
47289;SDS011;33197;52.524;13.444;2022-08-21T09:01:42;4.47;;;1.35;;
47289;SDS011;33197;52.524;13.444;2022-08-21T09:04:10;6.10;;;1.77;;
47289;SDS011;33197;52.524;13.444;2022-08-21T09:12:09;4.55;;;1.27;;
47289;SDS011;33197;52.524;13.444;2022-08-21T09:17:21;5.90;;;2.10;;
47289;SDS011;33197;52.524;13.444;2022-08-21T09:25:40;6.88;;;1.75;;
47289;SDS011;33197;52.524;13.444;2022-08-21T09:28:09;7.75;;;1.65;;
47289;SDS011;33197;52.524;13.444;2022-08-21T09:30:39;3.80;;;1.55;;
47289;SDS011;33197;52.524;13.444;2022-08-21T09:33:09;4.60;;;1.42;;
47289;SDS011;33197;52.524;13.444;2022-08-21T09:35:49;5.63;;;1.42;;
47289;SDS011;33197;52.524;13.444;2022-08-21T09:38:31;6.82;;;1.58;;
47289;SDS011;33197;52.524;13.444;2022-08-21T09:41:04;6.38;;;1.83;;
47289;SDS011;33197;52.524;13.444;2022-08-21T09:43:34;5.82;;;1.65;;
47289;SDS011;33197;52.524;13.444;2022-08-21T09:46:06;6.38;;;1.55;;
47289;SDS011;33197;52.524;13.444;2022-08-21T09:48:48;6.72;;;1.67;;
47289;SDS011;33197;52.524;13.444;2022-08-21T09:51:21;5.57;;;1.30;;
47289;SDS011;33197;52.524;13.444;2022-08-21T09:53:51;4.18;;;1.42;;
47289;SDS011;33197;52.524;13.444;2022-08-21T09:56:27;4.93;;;1.58;;
47289;SDS011;33197;52.524;13.444;2022-08-21T09:59:30;6.00;;;1.20;;
47289;SDS011;33197;52.524;13.444;2022-08-21T10:04:57;3.03;;;1.17;;
47289;SDS011;33197;52.524;13.444;2022-08-21T10:07:29;6.40;;;2.00;;
47289;SDS011;33197;52.524;13.444;2022-08-21T10:10:03;2.58;;;1.25;;
47289;SDS011;33197;52.524;13.444;2022-08-21T10:15:19;3.83;;;1.30;;
47289;SDS011;33197;52.524;13.444;2022-08-21T10:18:12;4.07;;;1.75;;
47289;SDS011;33197;52.524;13.444;2022-08-21T10:20:44;6.55;;;2.38;;
47289;SDS011;33197;52.524;13.444;2022-08-21T10:26:07;5.30;;;1.67;;
47289;SDS011;33197;52.524;13.444;2022-08-21T10:28:55;4.18;;;1.52;;
47289;SDS011;33197;52.524;13.444;2022-08-21T10:31:32;5.28;;;1.60;;
47289;SDS011;33197;52.524;13.444;2022-08-21T10:36:48;5.85;;;1.52;;
47289;SDS011;33197;52.524;13.444;2022-08-21T10:39:41;5.35;;;1.67;;
47289;SDS011;33197;52.524;13.444;2022-08-21T10:42:17;3.90;;;1.30;;
47289;SDS011;33197;52.524;13.444;2022-08-21T10:44:58;3.97;;;1.35;;
47289;SDS011;33197;52.524;13.444;2022-08-21T10:47:37;6.93;;;1.70;;
47289;SDS011;33197;52.524;13.444;2022-08-21T10:56:12;5.40;;;2.05;;
47289;SDS011;33197;52.524;13.444;2022-08-21T10:59:07;3.75;;;1.40;;
47289;SDS011;33197;52.524;13.444;2022-08-21T11:04:20;6.53;;;1.60;;
47289;SDS011;33197;52.524;13.444;2022-08-21T11:07:03;4.68;;;1.48;;
47289;SDS011;33197;52.524;13.444;2022-08-21T11:09:43;4.72;;;1.55;;
47289;SDS011;33197;52.524;13.444;2022-08-21T11:15:00;4.63;;;1.63;;
47289;SDS011;33197;52.524;13.444;2022-08-21T11:17:37;7.20;;;1.60;;
47289;SDS011;33197;52.524;13.444;2022-08-21T11:22:50;4.85;;;1.55;;
47289;SDS011;33197;52.524;13.444;2022-08-21T11:25:34;4.85;;;1.30;;
47289;SDS011;33197;52.524;13.444;2022-08-21T11:28:08;4.10;;;1.50;;
47289;SDS011;33197;52.524;13.444;2022-08-21T11:41:51;2.65;;;1.45;;
47289;SDS011;33197;52.524;13.444;2022-08-21T11:44:31;3.20;;;1.33;;
47289;SDS011;33197;52.524;13.444;2022-08-21T11:48:05;2.80;;;0.95;;
47289;SDS011;33197;52.524;13.444;2022-08-21T11:50:30;3.33;;;1.23;;
47289;SDS011;33197;52.524;13.444;2022-08-21T11:53:12;4.70;;;1.00;;
47289;SDS011;33197;52.524;13.444;2022-08-21T11:58:32;2.10;;;1.42;;
47289;SDS011;33197;52.524;13.444;2022-08-21T12:01:04;2.65;;;1.10;;
47289;SDS011;33197;52.524;13.444;2022-08-21T12:03:38;3.70;;;1.17;;
47289;SDS011;33197;52.524;13.444;2022-08-21T12:06:09;5.53;;;1.50;;
47289;SDS011;33197;52.524;13.444;2022-08-21T12:08:43;3.63;;;1.75;;
47289;SDS011;33197;52.524;13.444;2022-08-21T12:13:52;2.42;;;1.35;;
47289;SDS011;33197;52.524;13.444;2022-08-21T12:16:33;2.55;;;1.13;;
47289;SDS011;33197;52.524;13.444;2022-08-21T12:19:08;2.95;;;1.27;;
47289;SDS011;33197;52.524;13.444;2022-08-21T12:21:53;4.38;;;1.30;;
47289;SDS011;33197;52.524;13.444;2022-08-21T12:26:56;2.80;;;1.35;;
47289;SDS011;33197;52.524;13.444;2022-08-21T12:29:25;3.20;;;1.10;;
47289;SDS011;33197;52.524;13.444;2022-08-21T12:31:54;4.18;;;1.33;;
47289;SDS011;33197;52.524;13.444;2022-08-21T12:37:01;2.08;;;0.95;;
47289;SDS011;33197;52.524;13.444;2022-08-21T12:39:31;4.53;;;1.27;;
47289;SDS011;33197;52.524;13.444;2022-08-21T12:42:00;2.17;;;0.80;;
47289;SDS011;33197;52.524;13.444;2022-08-21T12:44:37;2.03;;;0.80;;
47289;SDS011;33197;52.524;13.444;2022-08-21T12:47:33;3.85;;;1.08;;
47289;SDS011;33197;52.524;13.444;2022-08-21T12:50:08;2.92;;;1.00;;
47289;SDS011;33197;52.524;13.444;2022-08-21T12:52:44;3.03;;;1.02;;
47289;SDS011;33197;52.524;13.444;2022-08-21T12:55:15;2.20;;;0.90;;
47289;SDS011;33197;52.524;13.444;2022-08-21T12:57:54;3.05;;;1.10;;
47289;SDS011;33197;52.524;13.444;2022-08-21T13:00:22;3.17;;;1.00;;
47289;SDS011;33197;52.524;13.444;2022-08-21T13:02:52;2.25;;;1.02;;
47289;SDS011;33197;52.524;13.444;2022-08-21T13:05:29;1.90;;;0.85;;
47289;SDS011;33197;52.524;13.444;2022-08-21T13:07:57;2.83;;;1.13;;
47289;SDS011;33197;52.524;13.444;2022-08-21T13:10:26;1.90;;;0.90;;
47289;SDS011;33197;52.524;13.444;2022-08-21T13:12:55;2.70;;;0.80;;
47289;SDS011;33197;52.524;13.444;2022-08-21T13:15:29;2.63;;;1.00;;
47289;SDS011;33197;52.524;13.444;2022-08-21T13:17:59;7.05;;;1.17;;
47289;SDS011;33197;52.524;13.444;2022-08-21T13:20:32;3.17;;;1.77;;
47289;SDS011;33197;52.524;13.444;2022-08-21T13:23:27;3.63;;;1.27;;
47289;SDS011;33197;52.524;13.444;2022-08-21T13:25:55;4.05;;;1.60;;
47289;SDS011;33197;52.524;13.444;2022-08-21T13:28:23;2.42;;;1.00;;
47289;SDS011;33197;52.524;13.444;2022-08-21T13:30:52;2.90;;;0.85;;
47289;SDS011;33197;52.524;13.444;2022-08-21T13:33:23;4.28;;;1.20;;
47289;SDS011;33197;52.524;13.444;2022-08-21T13:36:05;3.50;;;0.93;;
47289;SDS011;33197;52.524;13.444;2022-08-21T13:38:40;7.20;;;0.98;;
47289;SDS011;33197;52.524;13.444;2022-08-21T13:43:47;5.82;;;1.65;;
47289;SDS011;33197;52.524;13.444;2022-08-21T13:46:16;3.47;;;1.02;;
47289;SDS011;33197;52.524;13.444;2022-08-21T13:48:45;2.92;;;0.80;;
47289;SDS011;33197;52.524;13.444;2022-08-21T13:51:12;4.00;;;1.55;;
47289;SDS011;33197;52.524;13.444;2022-08-21T13:58:56;5.50;;;1.60;;
47289;SDS011;33197;52.524;13.444;2022-08-21T14:01:29;3.65;;;1.40;;
47289;SDS011;33197;52.524;13.444;2022-08-21T14:04:02;6.38;;;1.55;;
47289;SDS011;33197;52.524;13.444;2022-08-21T14:06:36;2.88;;;1.38;;
47289;SDS011;33197;52.524;13.444;2022-08-21T14:09:12;6.63;;;1.85;;
47289;SDS011;33197;52.524;13.444;2022-08-21T14:11:41;3.55;;;1.77;;
47289;SDS011;33197;52.524;13.444;2022-08-21T14:14:15;4.50;;;1.50;;
47289;SDS011;33197;52.524;13.444;2022-08-21T14:16:53;7.78;;;1.95;;
47289;SDS011;33197;52.524;13.444;2022-08-21T14:19:48;5.90;;;1.67;;
47289;SDS011;33197;52.524;13.444;2022-08-21T14:27:33;4.78;;;1.33;;
47289;SDS011;33197;52.524;13.444;2022-08-21T14:30:10;6.47;;;1.50;;
47289;SDS011;33197;52.524;13.444;2022-08-21T14:32:40;4.18;;;1.80;;
47289;SDS011;33197;52.524;13.444;2022-08-21T14:35:11;3.70;;;1.67;;
47289;SDS011;33197;52.524;13.444;2022-08-21T14:37:43;5.28;;;1.58;;
47289;SDS011;33197;52.524;13.444;2022-08-21T14:40:16;6.15;;;1.40;;
47289;SDS011;33197;52.524;13.444;2022-08-21T14:42:44;3.15;;;1.30;;
47289;SDS011;33197;52.524;13.444;2022-08-21T14:48:10;6.53;;;1.95;;
47289;SDS011;33197;52.524;13.444;2022-08-21T14:57:54;3.45;;;1.40;;
47289;SDS011;33197;52.524;13.444;2022-08-21T15:00:24;8.07;;;1.80;;
47289;SDS011;33197;52.524;13.444;2022-08-21T15:03:02;5.55;;;1.45;;
47289;SDS011;33197;52.524;13.444;2022-08-21T15:05:30;6.20;;;2.10;;
47289;SDS011;33197;52.524;13.444;2022-08-21T15:08:00;5.85;;;1.70;;
47289;SDS011;33197;52.524;13.444;2022-08-21T15:10:28;6.20;;;2.03;;
47289;SDS011;33197;52.524;13.444;2022-08-21T15:12:57;4.00;;;1.80;;
47289;SDS011;33197;52.524;13.444;2022-08-21T15:15:24;6.72;;;1.92;;
47289;SDS011;33197;52.524;13.444;2022-08-21T15:17:51;3.70;;;1.70;;
47289;SDS011;33197;52.524;13.444;2022-08-21T15:20:19;8.18;;;1.98;;
47289;SDS011;33197;52.524;13.444;2022-08-21T15:22:46;6.65;;;1.85;;
47289;SDS011;33197;52.524;13.444;2022-08-21T15:25:14;5.70;;;1.83;;
47289;SDS011;33197;52.524;13.444;2022-08-21T15:27:41;6.22;;;2.42;;
47289;SDS011;33197;52.524;13.444;2022-08-21T15:30:09;4.82;;;2.33;;
47289;SDS011;33197;52.524;13.444;2022-08-21T15:32:36;3.10;;;1.70;;
47289;SDS011;33197;52.524;13.444;2022-08-21T15:35:05;4.90;;;2.25;;
47289;SDS011;33197;52.524;13.444;2022-08-21T15:37:32;6.00;;;2.50;;
47289;SDS011;33197;52.524;13.444;2022-08-21T15:39:59;5.35;;;2.28;;
47289;SDS011;33197;52.524;13.444;2022-08-21T15:42:26;4.88;;;2.10;;
47289;SDS011;33197;52.524;13.444;2022-08-21T15:44:54;4.85;;;2.28;;
47289;SDS011;33197;52.524;13.444;2022-08-21T15:47:31;4.93;;;2.63;;
47289;SDS011;33197;52.524;13.444;2022-08-21T15:50:01;6.50;;;3.33;;
47289;SDS011;33197;52.524;13.444;2022-08-21T15:52:30;6.53;;;2.63;;
47289;SDS011;33197;52.524;13.444;2022-08-21T15:54:57;3.95;;;2.03;;
47289;SDS011;33197;52.524;13.444;2022-08-21T15:57:25;4.30;;;1.88;;
47289;SDS011;33197;52.524;13.444;2022-08-21T15:59:54;4.32;;;2.00;;
47289;SDS011;33197;52.524;13.444;2022-08-21T16:02:35;3.42;;;1.83;;
47289;SDS011;33197;52.524;13.444;2022-08-21T16:05:03;3.33;;;1.75;;
47289;SDS011;33197;52.524;13.444;2022-08-21T16:07:30;4.35;;;1.77;;
47289;SDS011;33197;52.524;13.444;2022-08-21T16:09:57;5.43;;;2.05;;
47289;SDS011;33197;52.524;13.444;2022-08-21T16:12:27;3.75;;;1.70;;
47289;SDS011;33197;52.524;13.444;2022-08-21T16:14:59;3.25;;;1.85;;
47289;SDS011;33197;52.524;13.444;2022-08-21T16:17:28;9.77;;;2.03;;
47289;SDS011;33197;52.524;13.444;2022-08-21T16:19:58;3.92;;;1.90;;
47289;SDS011;33197;52.524;13.444;2022-08-21T16:22:26;3.80;;;1.80;;
47289;SDS011;33197;52.524;13.444;2022-08-21T16:25:10;5.47;;;1.70;;